createdAt,value
2019-06-27T00:00:03.715Z,33
2019-06-27T00:01:03.777Z,33
2019-06-27T00:02:04.074Z,32
2019-06-27T00:03:03.477Z,32
2019-06-27T00:04:03.939Z,33
2019-06-27T00:05:04.287Z,33
2019-06-27T00:06:03.619Z,32
2019-06-27T00:07:03.916Z,32
2019-06-27T00:08:04.171Z,35
2019-06-27T00:09:03.545Z,32
2019-06-27T00:10:04.110Z,33
2019-06-27T00:11:03.410Z,32
2019-06-27T00:12:03.654Z,32
2019-06-27T00:13:03.986Z,35
2019-06-27T00:14:03.254Z,33
2019-06-27T00:15:03.616Z,32
2019-06-27T00:16:03.929Z,32
2019-06-27T00:17:03.288Z,33
2019-06-27T00:18:03.591Z,33
2019-06-27T00:19:03.917Z,33
2019-06-27T00:20:04.440Z,34
2019-06-27T00:21:03.682Z,32
2019-06-27T00:22:03.913Z,32
2019-06-27T00:23:03.411Z,34
2019-06-27T00:24:03.761Z,34
2019-06-27T00:25:04.139Z,32
2019-06-27T00:26:03.551Z,32
2019-06-27T00:27:03.834Z,33
2019-06-27T00:28:04.170Z,33
2019-06-27T00:29:03.499Z,33
2019-06-27T00:30:04.062Z,34
2019-06-27T00:31:03.371Z,32
2019-06-27T00:32:03.659Z,33
2019-06-27T00:33:03.960Z,33
2019-06-27T00:34:03.369Z,34
2019-06-27T00:35:03.775Z,34
2019-06-27T00:36:04.069Z,33
2019-06-27T00:37:03.334Z,34
2019-06-27T00:38:03.609Z,34
2019-06-27T00:39:04.023Z,34
2019-06-27T00:40:03.597Z,32
2019-06-27T00:41:03.916Z,32
2019-06-27T00:42:04.223Z,33
2019-06-27T00:43:03.785Z,32
2019-06-27T00:44:04.114Z,32
2019-06-27T00:45:03.430Z,33
2019-06-27T00:46:03.461Z,32
2019-06-27T00:47:03.717Z,33
2019-06-27T00:48:04.045Z,35
2019-06-27T00:49:03.386Z,34
2019-06-27T00:50:03.925Z,33
2019-06-27T00:51:03.326Z,32
2019-06-27T00:52:03.591Z,34
2019-06-27T00:53:03.923Z,33
2019-06-27T00:54:04.257Z,32
2019-06-27T00:55:03.737Z,32
2019-06-27T00:56:04.097Z,32
2019-06-27T00:57:13.248Z,32
2019-06-27T00:58:03.716Z,33
2019-06-27T00:59:04.021Z,32
2019-06-27T01:00:03.552Z,33
2019-06-27T01:01:03.699Z,33
2019-06-27T01:02:04.064Z,35
2019-06-27T01:03:03.373Z,33
2019-06-27T01:04:03.672Z,34
2019-06-27T01:05:04.066Z,33
2019-06-27T01:06:03.675Z,33
2019-06-27T01:07:03.945Z,32
2019-06-27T01:08:04.207Z,33
2019-06-27T01:09:03.611Z,32
2019-06-27T01:10:04.136Z,33
2019-06-27T01:11:03.451Z,31
2019-06-27T01:12:03.717Z,32
2019-06-27T01:13:04.003Z,32
2019-06-27T01:14:03.430Z,32
2019-06-27T01:15:03.894Z,32
2019-06-27T01:16:04.186Z,31
2019-06-27T01:17:03.478Z,33
2019-06-27T01:18:03.771Z,32
2019-06-27T01:19:04.073Z,31
2019-06-27T01:20:03.745Z,31
2019-06-27T01:21:03.985Z,30
2019-06-27T01:22:03.266Z,33
2019-06-27T01:23:03.558Z,31
2019-06-27T01:24:03.888Z,31
2019-06-27T01:25:04.332Z,31
2019-06-27T01:26:03.653Z,31
2019-06-27T01:27:04.040Z,33
2019-06-27T01:28:03.264Z,32
2019-06-27T01:29:03.569Z,32
2019-06-27T01:30:04.094Z,32
2019-06-27T01:31:03.381Z,31
2019-06-27T01:32:03.653Z,31
2019-06-27T01:33:03.900Z,32
2019-06-27T01:34:04.213Z,32
2019-06-27T01:35:04.407Z,31
2019-06-27T01:36:04.144Z,29
2019-06-27T01:37:03.432Z,31
2019-06-27T01:38:03.747Z,32
2019-06-27T01:39:04.211Z,31
2019-06-27T01:40:03.850Z,31
2019-06-27T01:41:04.188Z,32
2019-06-27T01:42:03.503Z,31
2019-06-27T01:43:03.832Z,32
2019-06-27T01:44:04.125Z,32
2019-06-27T01:45:03.630Z,34
2019-06-27T01:46:03.962Z,31
2019-06-27T01:47:03.294Z,32
2019-06-27T01:48:03.581Z,32
2019-06-27T01:49:03.948Z,32
2019-06-27T01:50:04.484Z,31
2019-06-27T01:51:03.757Z,30
2019-06-27T01:52:04.093Z,31
2019-06-27T01:53:03.391Z,31
2019-06-27T01:54:03.685Z,32
2019-06-27T01:55:04.104Z,30
2019-06-27T01:56:03.476Z,30
2019-06-27T01:57:03.759Z,31
2019-06-27T01:58:04.029Z,30
2019-06-27T01:59:03.341Z,31
2019-06-27T02:00:03.830Z,30
2019-06-27T02:01:03.877Z,30
2019-06-27T02:02:04.208Z,31
2019-06-27T02:03:03.526Z,31
2019-06-27T02:04:03.907Z,30
2019-06-27T02:05:03.406Z,30
2019-06-27T02:06:03.783Z,30
2019-06-27T02:07:04.044Z,30
2019-06-27T02:08:03.350Z,30
2019-06-27T02:09:03.749Z,30
2019-06-27T02:10:04.368Z,30
2019-06-27T02:11:03.683Z,29
2019-06-27T02:12:03.867Z,30
2019-06-27T02:13:04.125Z,31
2019-06-27T02:14:03.373Z,30
2019-06-27T02:15:03.864Z,30
2019-06-27T02:16:04.185Z,29
2019-06-27T02:17:03.482Z,30
2019-06-27T02:18:03.755Z,29
2019-06-27T02:19:04.087Z,29
2019-06-27T02:20:03.602Z,30
2019-06-27T02:21:04.007Z,30
2019-06-27T02:22:03.279Z,30
2019-06-27T02:23:03.601Z,30
2019-06-27T02:24:03.874Z,30
2019-06-27T02:25:03.410Z,31
2019-06-27T02:26:03.760Z,30
2019-06-27T02:27:04.115Z,30
2019-06-27T02:28:04.415Z,30
2019-06-27T02:29:04.133Z,29
2019-06-27T02:30:03.710Z,30
2019-06-27T02:31:04.180Z,29
2019-06-27T02:32:03.550Z,30
2019-06-27T02:33:03.862Z,32
2019-06-27T02:34:06.681Z,31
2019-06-27T02:35:03.898Z,29
2019-06-27T02:36:03.292Z,30
2019-06-27T02:37:03.690Z,30
2019-06-27T02:38:03.994Z,30
2019-06-27T02:39:03.489Z,29
2019-06-27T02:40:04.114Z,30
2019-06-27T02:41:03.532Z,29
2019-06-27T02:42:03.825Z,30
2019-06-27T02:43:04.156Z,29
2019-06-27T02:44:03.608Z,30
2019-06-27T02:45:04.168Z,29
2019-06-27T02:46:03.530Z,30
2019-06-27T02:47:03.879Z,31
2019-06-27T02:48:04.250Z,30
2019-06-27T02:49:03.553Z,30
2019-06-27T02:50:04.101Z,31
2019-06-27T02:51:03.476Z,30
2019-06-27T02:52:03.863Z,30
2019-06-27T02:53:04.177Z,30
2019-06-27T02:54:03.476Z,30
2019-06-27T02:55:03.937Z,30
2019-06-27T02:56:03.299Z,30
2019-06-27T02:57:03.635Z,30
2019-06-27T02:58:22.453Z,29
2019-06-27T02:59:04.132Z,30
2019-06-27T03:00:03.657Z,30
2019-06-27T03:01:03.746Z,30
2019-06-27T03:02:04.091Z,30
2019-06-27T03:03:03.358Z,29
2019-06-27T03:04:03.719Z,30
2019-06-27T03:05:04.167Z,29
2019-06-27T03:06:03.472Z,30
2019-06-27T03:07:03.854Z,30
2019-06-27T03:08:04.227Z,30
2019-06-27T03:09:03.676Z,30
2019-06-27T03:10:04.276Z,30
2019-06-27T03:11:03.593Z,30
2019-06-27T03:12:03.926Z,30
2019-06-27T03:13:04.182Z,30
2019-06-27T03:14:03.529Z,30
2019-06-27T03:15:03.955Z,29
2019-06-27T03:16:04.254Z,29
2019-06-27T03:17:03.619Z,30
2019-06-27T03:18:03.908Z,31
2019-06-27T03:19:04.169Z,30
2019-06-27T03:20:03.738Z,30
2019-06-27T03:21:04.088Z,30
2019-06-27T03:22:05.732Z,30
2019-06-27T03:23:03.619Z,26
2019-06-27T03:24:03.928Z,31
2019-06-27T03:25:03.413Z,30
2019-06-27T03:26:03.825Z,30
2019-06-27T03:27:04.211Z,31
2019-06-27T03:28:03.581Z,32
2019-06-27T03:29:03.790Z,31
2019-06-27T03:30:04.302Z,31
2019-06-27T03:31:04.019Z,30
2019-06-27T03:32:03.371Z,30
2019-06-27T03:33:03.816Z,31
2019-06-27T03:34:04.201Z,31
2019-06-27T03:35:03.799Z,31
2019-06-27T03:36:03.260Z,31
2019-06-27T03:37:03.647Z,33
2019-06-27T03:38:04.056Z,31
2019-06-27T03:39:03.468Z,30
2019-06-27T03:40:03.983Z,30
2019-06-27T03:41:03.325Z,30
2019-06-27T03:42:03.621Z,30
2019-06-27T03:43:04.003Z,32
2019-06-27T03:44:03.328Z,31
2019-06-27T03:45:03.751Z,30
2019-06-27T03:46:03.453Z,30
2019-06-27T03:47:03.720Z,31
2019-06-27T03:48:04.134Z,30
2019-06-27T03:49:03.442Z,30
2019-06-27T03:50:03.991Z,30
2019-06-27T03:51:03.301Z,30
2019-06-27T03:52:03.585Z,31
2019-06-27T03:53:03.932Z,31
2019-06-27T03:54:04.267Z,30
2019-06-27T03:55:03.723Z,30
2019-06-27T03:56:04.040Z,30
2019-06-27T03:57:03.366Z,31
2019-06-27T03:58:03.755Z,31
2019-06-27T03:59:11.952Z,32
2019-06-27T04:00:03.659Z,30
2019-06-27T04:01:03.663Z,30
2019-06-27T04:02:04.178Z,31
2019-06-27T04:03:03.561Z,32
2019-06-27T04:04:03.914Z,30
2019-06-27T04:05:04.396Z,30
2019-06-27T04:06:03.778Z,30
2019-06-27T04:07:04.076Z,31
2019-06-27T04:08:03.339Z,30
2019-06-27T04:09:03.772Z,31
2019-06-27T04:10:04.387Z,30
2019-06-27T04:11:03.702Z,30
2019-06-27T04:12:04.030Z,30
2019-06-27T04:13:03.383Z,31
2019-06-27T04:14:03.663Z,31
2019-06-27T04:15:04.185Z,31
2019-06-27T04:16:03.508Z,31
2019-06-27T04:17:03.796Z,31
2019-06-27T04:18:04.080Z,31
2019-06-27T04:19:03.337Z,30
2019-06-27T04:20:04.009Z,31
2019-06-27T04:21:03.341Z,30
2019-06-27T04:22:03.714Z,30
2019-06-27T04:23:04.006Z,30
2019-06-27T04:24:03.262Z,31
2019-06-27T04:25:03.844Z,31
2019-06-27T04:26:04.092Z,30
2019-06-27T04:27:03.379Z,31
2019-06-27T04:28:03.908Z,31
2019-06-27T04:29:04.227Z,30
2019-06-27T04:30:03.962Z,30
2019-06-27T04:31:03.362Z,30
2019-06-27T04:32:03.643Z,31
2019-06-27T04:33:03.912Z,31
2019-06-27T04:34:03.264Z,32
2019-06-27T04:35:03.735Z,31
2019-06-27T04:36:04.020Z,30
2019-06-27T04:37:03.336Z,31
2019-06-27T04:38:03.633Z,31
2019-06-27T04:39:04.030Z,32
2019-06-27T04:40:03.627Z,32
2019-06-27T04:41:03.918Z,31
2019-06-27T04:42:04.190Z,32
2019-06-27T04:43:05.586Z,32
2019-06-27T04:44:03.671Z,30
2019-06-27T04:45:04.139Z,32
2019-06-27T04:46:03.531Z,30
2019-06-27T04:47:03.806Z,31
2019-06-27T04:48:04.047Z,30
2019-06-27T04:49:03.371Z,31
2019-06-27T04:50:03.793Z,31
2019-06-27T04:51:04.061Z,31
2019-06-27T04:52:03.338Z,30
2019-06-27T04:53:03.648Z,30
2019-06-27T04:54:03.916Z,30
2019-06-27T04:55:04.542Z,30
2019-06-27T04:56:03.957Z,30
2019-06-27T04:57:04.227Z,30
2019-06-27T04:58:03.538Z,30
2019-06-27T04:59:03.874Z,30
2019-06-27T05:00:04.470Z,30
2019-06-27T05:01:03.832Z,26
2019-06-27T05:02:04.104Z,25
2019-06-27T05:03:03.381Z,30
2019-06-27T05:04:03.669Z,26
2019-06-27T05:05:04.119Z,25
2019-06-27T05:06:03.602Z,19
2019-06-27T05:07:04.056Z,24
2019-06-27T05:08:03.355Z,21
2019-06-27T05:09:03.689Z,20
2019-06-27T05:10:04.416Z,30
2019-06-27T05:11:03.786Z,21
2019-06-27T05:12:03.821Z,25
2019-06-27T05:13:04.360Z,30
2019-06-27T05:14:04.498Z,30
2019-06-27T05:15:03.400Z,21
2019-06-27T05:16:03.967Z,25
2019-06-27T05:17:03.487Z,30
2019-06-27T05:18:03.765Z,28
2019-06-27T05:19:04.345Z,30
2019-06-27T05:20:04.013Z,26
2019-06-27T05:21:03.454Z,23
2019-06-27T05:22:03.741Z,25
2019-06-27T05:23:04.029Z,25
2019-06-27T05:24:03.354Z,30
2019-06-27T05:25:03.894Z,30
2019-06-27T05:26:03.641Z,30
2019-06-27T05:27:03.633Z,26
2019-06-27T05:28:04.094Z,30
2019-06-27T05:29:03.651Z,30
2019-06-27T05:30:09.714Z,26
2019-06-27T05:31:04.182Z,29
2019-06-27T05:32:03.488Z,29
2019-06-27T05:33:03.852Z,26
2019-06-27T05:34:04.146Z,25
2019-06-27T05:35:03.948Z,21
2019-06-27T05:36:03.487Z,19
2019-06-27T05:37:03.849Z,21
2019-06-27T05:38:04.182Z,19
2019-06-27T05:39:03.577Z,19
2019-06-27T05:40:03.481Z,19
2019-06-27T05:41:03.878Z,19
2019-06-27T05:42:03.580Z,19
2019-06-27T05:43:03.868Z,19
2019-06-27T05:44:04.187Z,19
2019-06-27T05:45:03.807Z,19
2019-06-27T05:46:03.372Z,19
2019-06-27T05:47:03.701Z,19
2019-06-27T05:48:03.975Z,19
2019-06-27T05:49:03.472Z,21
2019-06-27T05:50:04.014Z,19
2019-06-27T05:51:03.334Z,19
2019-06-27T05:52:03.697Z,19
2019-06-27T05:53:03.984Z,24
2019-06-27T05:54:03.587Z,19
2019-06-27T05:55:04.106Z,19
2019-06-27T05:56:05.334Z,19
2019-06-27T05:57:03.388Z,19
2019-06-27T05:58:03.716Z,19
2019-06-27T05:59:03.995Z,19
2019-06-27T06:00:03.508Z,19
2019-06-27T06:01:03.610Z,29
2019-06-27T06:02:03.802Z,19
2019-06-27T06:03:04.174Z,19
2019-06-27T06:04:03.533Z,19
2019-06-27T06:05:04.005Z,19
2019-06-27T06:06:04.034Z,19
2019-06-27T06:07:03.302Z,19
2019-06-27T06:08:03.664Z,19
2019-06-27T06:09:04.029Z,19
2019-06-27T06:10:03.613Z,19
2019-06-27T06:11:03.960Z,19
2019-06-27T06:12:03.319Z,19
2019-06-27T06:13:04.302Z,19
2019-06-27T06:14:04.050Z,19
2019-06-27T06:15:03.445Z,19
2019-06-27T06:16:03.783Z,19
2019-06-27T06:17:04.103Z,19
2019-06-27T06:18:03.458Z,19
2019-06-27T06:19:03.820Z,19
2019-06-27T06:20:04.371Z,19
2019-06-27T06:21:03.487Z,19
2019-06-27T06:22:04.007Z,19
2019-06-27T06:23:03.333Z,19
2019-06-27T06:24:03.573Z,19
2019-06-27T06:25:03.933Z,19
2019-06-27T06:26:03.369Z,19
2019-06-27T06:27:03.777Z,19
2019-06-27T06:28:04.129Z,19
2019-06-27T06:29:03.444Z,19
2019-06-27T06:30:04.039Z,19
2019-06-27T06:31:03.688Z,19
2019-06-27T06:32:04.074Z,19
2019-06-27T06:33:03.458Z,19
2019-06-27T06:34:03.688Z,19
2019-06-27T06:35:04.049Z,19
2019-06-27T06:36:03.737Z,19
2019-06-27T06:37:07.055Z,19
2019-06-27T06:38:04.189Z,19
2019-06-27T06:39:04.280Z,19
2019-06-27T06:40:04.360Z,19
2019-06-27T06:41:04.202Z,19
2019-06-27T06:42:03.912Z,19
2019-06-27T06:43:04.359Z,19
2019-06-27T06:44:03.602Z,19
2019-06-27T06:45:03.848Z,19
2019-06-27T06:46:03.913Z,19
2019-06-27T06:47:04.225Z,19
2019-06-27T06:48:04.502Z,19
2019-06-27T06:49:11.473Z,19
2019-06-27T06:50:03.480Z,19
2019-06-27T06:51:03.838Z,19
2019-06-27T06:52:04.236Z,19
2019-06-27T06:53:03.788Z,19
2019-06-27T06:54:04.096Z,19
2019-06-27T06:55:03.538Z,19
2019-06-27T06:56:03.903Z,19
2019-06-27T06:57:04.202Z,19
2019-06-27T06:58:03.595Z,19
2019-06-27T06:59:04.018Z,19
2019-06-27T07:00:03.979Z,19
2019-06-27T07:01:03.391Z,19
2019-06-27T07:02:03.708Z,19
2019-06-27T07:03:04.121Z,19
2019-06-27T07:04:03.497Z,19
2019-06-27T07:05:04.095Z,19
2019-06-27T07:06:03.420Z,19
2019-06-27T07:07:03.729Z,19
2019-06-27T07:08:04.221Z,19
2019-06-27T07:09:04.017Z,19
2019-06-27T07:10:03.816Z,19
2019-06-27T07:11:03.334Z,19
2019-06-27T07:12:03.885Z,19
2019-06-27T07:13:04.153Z,19
2019-06-27T07:14:03.478Z,19
2019-06-27T07:15:04.070Z,19
2019-06-27T07:16:03.390Z,19
2019-06-27T07:17:03.715Z,19
2019-06-27T07:18:04.076Z,19
2019-06-27T07:19:03.692Z,19
2019-06-27T07:20:04.569Z,19
2019-06-27T07:21:04.014Z,19
2019-06-27T07:22:03.303Z,19
2019-06-27T07:23:03.584Z,19
2019-06-27T07:24:04.102Z,19
2019-06-27T07:25:04.326Z,19
2019-06-27T07:26:04.090Z,19
2019-06-27T07:27:03.506Z,19
2019-06-27T07:28:03.899Z,19
2019-06-27T07:29:04.210Z,19
2019-06-27T07:30:03.897Z,19
2019-06-27T07:31:16.750Z,19
2019-06-27T07:32:03.416Z,19
2019-06-27T07:33:03.300Z,19
2019-06-27T07:34:03.671Z,19
2019-06-27T07:35:04.178Z,19
2019-06-27T07:36:03.479Z,19
2019-06-27T07:37:03.715Z,19
2019-06-27T07:38:04.022Z,19
2019-06-27T07:39:03.396Z,19
2019-06-27T07:40:03.994Z,18
2019-06-27T07:41:03.567Z,19
2019-06-27T07:42:03.970Z,19
2019-06-27T07:43:04.218Z,19
2019-06-27T07:44:03.531Z,19
2019-06-27T07:45:03.986Z,19
2019-06-27T07:46:03.876Z,19
2019-06-27T07:47:03.589Z,19
2019-06-27T07:48:03.880Z,19
2019-06-27T07:49:04.135Z,19
2019-06-27T07:50:03.788Z,19
2019-06-27T07:51:04.160Z,19
2019-06-27T07:52:03.710Z,19
2019-06-27T07:53:03.999Z,19
2019-06-27T07:54:03.415Z,19
2019-06-27T07:55:03.816Z,19
2019-06-27T07:56:04.244Z,19
2019-06-27T07:57:03.600Z,19
2019-06-27T07:58:03.374Z,18
2019-06-27T07:59:03.681Z,18
2019-06-27T08:00:04.227Z,19
2019-06-27T08:01:04.105Z,18
2019-06-27T08:02:03.391Z,19
2019-06-27T08:03:03.718Z,19
2019-06-27T08:04:04.058Z,19
2019-06-27T08:05:03.487Z,19
2019-06-27T08:06:03.487Z,18
2019-06-27T08:07:03.841Z,19
2019-06-27T08:08:04.132Z,19
2019-06-27T08:09:03.580Z,19
2019-06-27T08:10:04.326Z,19
2019-06-27T08:11:03.673Z,19
2019-06-27T08:12:03.968Z,19
2019-06-27T08:13:04.257Z,19
2019-06-27T08:14:03.515Z,18
2019-06-27T08:15:03.962Z,19
2019-06-27T08:16:03.368Z,19
2019-06-27T08:17:03.714Z,18
2019-06-27T08:18:04.048Z,18
2019-06-27T08:19:03.330Z,18
2019-06-27T08:20:03.947Z,19
2019-06-27T08:21:03.352Z,18
2019-06-27T08:22:03.809Z,18
2019-06-27T08:23:03.543Z,17
2019-06-27T08:24:03.927Z,18
2019-06-27T08:25:04.407Z,18
2019-06-27T08:26:03.773Z,17
2019-06-27T08:27:04.185Z,18
2019-06-27T08:28:03.530Z,18
2019-06-27T08:29:03.897Z,17
2019-06-27T08:30:03.502Z,17
2019-06-27T08:31:03.505Z,17
2019-06-27T08:32:03.865Z,18
2019-06-27T08:33:04.097Z,17
2019-06-27T08:34:03.370Z,17
2019-06-27T08:35:03.827Z,17
2019-06-27T08:36:04.134Z,16
2019-06-27T08:37:03.490Z,17
2019-06-27T08:38:03.754Z,16
2019-06-27T08:39:04.256Z,17
2019-06-27T08:40:03.784Z,17
2019-06-27T08:41:04.192Z,17
2019-06-27T08:42:04.239Z,17
2019-06-27T08:43:03.506Z,16
2019-06-27T08:44:03.802Z,17
2019-06-27T08:45:04.196Z,17
2019-06-27T08:46:05.623Z,16
2019-06-27T08:47:07.286Z,16
2019-06-27T08:48:05.930Z,16
2019-06-27T08:49:06.370Z,16
2019-06-27T08:50:20.516Z,16
2019-06-27T08:51:21.198Z,16
2019-06-27T08:52:03.467Z,16
2019-06-27T08:53:03.715Z,16
2019-06-27T08:54:03.936Z,17
2019-06-27T08:55:04.381Z,17
2019-06-27T08:56:03.719Z,16
2019-06-27T08:57:04.247Z,17
2019-06-27T08:58:03.995Z,16
2019-06-27T08:59:03.866Z,16
2019-06-27T09:00:03.653Z,16
2019-06-27T09:01:03.713Z,16
2019-06-27T09:02:08.258Z,16
2019-06-27T09:03:04.195Z,16
2019-06-27T09:04:03.992Z,16
2019-06-27T09:05:03.652Z,16
2019-06-27T09:06:03.417Z,16
2019-06-27T09:07:03.744Z,16
2019-06-27T09:08:04.018Z,16
2019-06-27T09:09:04.020Z,16
2019-06-27T09:10:04.486Z,16
2019-06-27T09:11:03.931Z,16
2019-06-27T09:12:03.825Z,16
2019-06-27T09:13:03.706Z,16
2019-06-27T09:14:03.616Z,16
2019-06-27T09:15:04.095Z,16
2019-06-27T09:16:03.636Z,16
2019-06-27T09:17:03.872Z,16
2019-06-27T09:18:04.230Z,16
2019-06-27T09:19:03.516Z,16
2019-06-27T09:20:04.195Z,16
2019-06-27T09:21:03.930Z,16
2019-06-27T09:22:03.521Z,16
2019-06-27T09:23:04.122Z,16
2019-06-27T09:24:03.620Z,16
2019-06-27T09:25:04.256Z,16
2019-06-27T09:26:03.734Z,16
2019-06-27T09:27:04.106Z,16
2019-06-27T09:28:03.980Z,16
2019-06-27T09:29:03.298Z,16
2019-06-27T09:30:04.016Z,16
2019-06-27T09:31:03.473Z,16
2019-06-27T09:32:03.784Z,16
2019-06-27T09:33:03.921Z,16
2019-06-27T09:34:04.175Z,16
2019-06-27T09:35:03.606Z,16
2019-06-27T09:36:03.923Z,16
2019-06-27T09:37:04.230Z,16
2019-06-27T09:38:03.604Z,15
2019-06-27T09:39:04.009Z,15
2019-06-27T09:40:03.570Z,16
2019-06-27T09:41:03.889Z,15
2019-06-27T09:42:04.132Z,16
2019-06-27T09:43:03.449Z,15
2019-06-27T09:44:03.757Z,15
2019-06-27T09:45:04.170Z,16
2019-06-27T09:46:03.471Z,16
2019-06-27T09:47:03.789Z,16
2019-06-27T09:48:04.158Z,15
2019-06-27T09:49:03.486Z,15
2019-06-27T09:50:04.019Z,15
2019-06-27T09:51:03.539Z,15
2019-06-27T09:52:03.801Z,15
2019-06-27T09:53:04.115Z,16
2019-06-27T09:54:03.492Z,15
2019-06-27T09:55:03.867Z,15
2019-06-27T09:56:04.189Z,15
2019-06-27T09:57:03.501Z,15
2019-06-27T09:58:03.860Z,15
2019-06-27T09:59:04.202Z,15
2019-06-27T10:00:03.739Z,15
2019-06-27T10:01:05.977Z,15
2019-06-27T10:02:03.914Z,15
2019-06-27T10:03:04.222Z,15
2019-06-27T10:04:03.553Z,15
2019-06-27T10:05:03.933Z,15
2019-06-27T10:06:03.486Z,15
2019-06-27T10:07:03.883Z,15
2019-06-27T10:08:04.154Z,15
2019-06-27T10:09:03.715Z,15
2019-06-27T10:10:04.254Z,15
2019-06-27T10:11:03.637Z,15
2019-06-27T10:12:03.919Z,15
2019-06-27T10:13:04.194Z,15
2019-06-27T10:14:03.579Z,15
2019-06-27T10:15:03.991Z,14
2019-06-27T10:16:03.402Z,15
2019-06-27T10:17:03.678Z,15
2019-06-27T10:18:03.979Z,15
2019-06-27T10:19:03.348Z,15
2019-06-27T10:20:03.843Z,15
2019-06-27T10:21:04.146Z,15
2019-06-27T10:22:03.454Z,15
2019-06-27T10:23:03.773Z,15
2019-06-27T10:24:04.284Z,15
2019-06-27T10:25:03.686Z,15
2019-06-27T10:26:04.057Z,15
2019-06-27T10:27:03.360Z,15
2019-06-27T10:28:03.639Z,15
2019-06-27T10:29:03.999Z,15
2019-06-27T10:30:04.481Z,15
2019-06-27T10:31:03.970Z,15
2019-06-27T10:32:03.296Z,15
2019-06-27T10:33:03.568Z,15
2019-06-27T10:34:03.951Z,15
2019-06-27T10:35:03.393Z,15
2019-06-27T10:36:03.421Z,15
2019-06-27T10:37:03.911Z,15
2019-06-27T10:38:04.187Z,15
2019-06-27T10:39:03.564Z,15
2019-06-27T10:40:04.527Z,15
2019-06-27T10:41:03.868Z,15
2019-06-27T10:42:04.208Z,15
2019-06-27T10:43:03.504Z,15
2019-06-27T10:44:03.835Z,15
2019-06-27T10:45:04.272Z,15
2019-06-27T10:46:03.584Z,15
2019-06-27T10:47:03.871Z,14
2019-06-27T10:48:04.212Z,15
2019-06-27T10:49:03.602Z,14
2019-06-27T10:50:04.240Z,15
2019-06-27T10:51:03.532Z,15
2019-06-27T10:52:03.826Z,15
2019-06-27T10:53:04.150Z,15
2019-06-27T10:54:03.607Z,15
2019-06-27T10:55:04.087Z,15
2019-06-27T10:56:03.441Z,14
2019-06-27T10:57:03.741Z,14
2019-06-27T10:58:04.036Z,14
2019-06-27T10:59:03.386Z,13
2019-06-27T11:00:04.078Z,14
2019-06-27T11:01:03.679Z,13
2019-06-27T11:02:04.068Z,14
2019-06-27T11:03:14.666Z,13
2019-06-27T11:04:03.746Z,13
2019-06-27T11:05:04.236Z,14
2019-06-27T11:06:03.588Z,13
2019-06-27T11:07:03.889Z,13
2019-06-27T11:08:04.164Z,13
2019-06-27T11:09:03.614Z,13
2019-06-27T11:10:04.205Z,13
2019-06-27T11:11:03.480Z,13
2019-06-27T11:12:03.845Z,13
2019-06-27T11:13:04.098Z,13
2019-06-27T11:14:03.463Z,14
2019-06-27T11:15:03.931Z,13
2019-06-27T11:16:03.281Z,13
2019-06-27T11:17:03.946Z,13
2019-06-27T11:18:04.248Z,13
2019-06-27T11:19:03.498Z,14
2019-06-27T11:20:04.096Z,14
2019-06-27T11:21:03.738Z,14
2019-06-27T11:22:04.088Z,14
2019-06-27T11:23:03.391Z,14
2019-06-27T11:24:03.825Z,14
2019-06-27T11:25:04.303Z,14
2019-06-27T11:26:03.662Z,14
2019-06-27T11:27:04.277Z,14
2019-06-27T11:28:03.581Z,13
2019-06-27T11:29:03.670Z,13
2019-06-27T11:30:04.667Z,13
2019-06-27T11:31:03.476Z,13
2019-06-27T11:32:03.939Z,13
2019-06-27T11:33:04.261Z,13
2019-06-27T11:34:03.591Z,13
2019-06-27T11:35:04.054Z,13
2019-06-27T11:36:03.627Z,13
2019-06-27T11:37:03.939Z,14
2019-06-27T11:38:03.283Z,13
2019-06-27T11:39:03.656Z,13
2019-06-27T11:40:04.203Z,14
2019-06-27T11:41:03.301Z,13
2019-06-27T11:42:03.618Z,14
2019-06-27T11:43:03.971Z,13
2019-06-27T11:44:03.271Z,14
2019-06-27T11:45:03.680Z,13
2019-06-27T11:46:04.148Z,13
2019-06-27T11:47:03.766Z,13
2019-06-27T11:48:04.140Z,13
2019-06-27T11:49:03.444Z,14
2019-06-27T11:50:04.468Z,13
2019-06-27T11:51:04.176Z,13
2019-06-27T11:52:03.503Z,13
2019-06-27T11:53:03.920Z,13
2019-06-27T11:54:04.187Z,13
2019-06-27T11:55:03.694Z,13
2019-06-27T11:56:03.975Z,13
2019-06-27T11:57:03.337Z,13
2019-06-27T11:58:03.657Z,13
2019-06-27T11:59:03.938Z,13
2019-06-27T12:00:03.518Z,13
2019-06-27T12:01:03.637Z,13
2019-06-27T12:02:03.961Z,13
2019-06-27T12:03:03.287Z,13
2019-06-27T12:04:03.569Z,13
2019-06-27T12:05:04.078Z,13
2019-06-27T12:06:03.515Z,13
2019-06-27T12:07:03.797Z,14
2019-06-27T12:08:04.081Z,14
2019-06-27T12:09:03.732Z,14
2019-06-27T12:10:04.358Z,13
2019-06-27T12:11:03.651Z,13
2019-06-27T12:12:04.109Z,14
2019-06-27T12:13:03.400Z,14
2019-06-27T12:14:03.726Z,14
2019-06-27T12:15:04.192Z,14
2019-06-27T12:16:03.543Z,12
2019-06-27T12:17:03.923Z,13
2019-06-27T12:18:04.209Z,14
2019-06-27T12:19:03.517Z,13
2019-06-27T12:20:04.091Z,13
2019-06-27T12:21:06.064Z,12
2019-06-27T12:22:03.977Z,13
2019-06-27T12:23:03.281Z,13
2019-06-27T12:24:03.611Z,13
2019-06-27T12:25:04.062Z,12
2019-06-27T12:26:03.527Z,13
2019-06-27T12:27:04.016Z,13
2019-06-27T12:28:03.324Z,13
2019-06-27T12:29:03.628Z,12
2019-06-27T12:30:04.278Z,13
2019-06-27T12:31:19.218Z,12
2019-06-27T12:32:03.699Z,13
2019-06-27T12:33:04.029Z,13
2019-06-27T12:34:07.103Z,13
2019-06-27T12:35:04.311Z,12
2019-06-27T12:36:03.759Z,13
2019-06-27T12:37:03.881Z,13
2019-06-27T12:38:03.857Z,12
2019-06-27T12:39:04.221Z,13
2019-06-27T12:40:03.796Z,12
2019-06-27T12:41:04.149Z,13
2019-06-27T12:42:03.460Z,13
2019-06-27T12:43:03.737Z,12
2019-06-27T12:44:03.991Z,12
2019-06-27T12:45:03.408Z,12
2019-06-27T12:46:03.903Z,12
2019-06-27T12:47:03.440Z,12
2019-06-27T12:48:06.743Z,12
2019-06-27T12:49:03.887Z,12
2019-06-27T12:50:04.474Z,12
2019-06-27T12:51:04.069Z,12
2019-06-27T12:52:03.419Z,12
2019-06-27T12:53:03.715Z,12
2019-06-27T12:54:04.008Z,12
2019-06-27T12:55:03.525Z,12
2019-06-27T12:56:03.511Z,12
2019-06-27T12:57:04.310Z,12
2019-06-27T12:58:04.270Z,12
2019-06-27T12:59:03.996Z,12
2019-06-27T13:00:03.763Z,12
2019-06-27T13:01:04.098Z,12
2019-06-27T13:02:03.750Z,13
2019-06-27T13:03:03.970Z,13
2019-06-27T13:04:03.246Z,12
2019-06-27T13:05:03.697Z,13
2019-06-27T13:06:03.450Z,12
2019-06-27T13:07:04.381Z,12
2019-06-27T13:08:03.535Z,12
2019-06-27T13:09:03.729Z,12
2019-06-27T13:10:03.976Z,12
2019-06-27T13:11:03.944Z,12
2019-06-27T13:12:03.801Z,12
2019-06-27T13:13:03.997Z,12
2019-06-27T13:14:03.329Z,12
2019-06-27T13:15:09.787Z,12
2019-06-27T13:16:03.611Z,13
2019-06-27T13:17:03.506Z,12
2019-06-27T13:18:03.581Z,12
2019-06-27T13:19:03.648Z,12
2019-06-27T13:20:03.920Z,12
2019-06-27T13:21:03.937Z,12
2019-06-27T13:22:03.912Z,12
2019-06-27T13:23:04.209Z,12
2019-06-27T13:24:04.218Z,12
2019-06-27T13:25:04.330Z,12
2019-06-27T13:26:03.408Z,12
2019-06-27T13:27:03.502Z,12
2019-06-27T13:28:03.458Z,12
2019-06-27T13:29:03.354Z,12
2019-06-27T13:30:04.552Z,12
2019-06-27T13:31:03.976Z,12
2019-06-27T13:32:04.218Z,12
2019-06-27T13:33:04.092Z,12
2019-06-27T13:34:04.125Z,12
2019-06-27T13:35:04.174Z,12
2019-06-27T13:36:04.154Z,12
2019-06-27T13:37:03.889Z,13
2019-06-27T13:38:04.219Z,12
2019-06-27T13:39:06.232Z,13
2019-06-27T13:40:04.820Z,12
2019-06-27T13:41:03.650Z,14
2019-06-27T13:42:03.934Z,14
2019-06-27T13:43:03.505Z,13
2019-06-27T13:44:03.558Z,13
2019-06-27T13:45:04.354Z,13
2019-06-27T13:46:03.663Z,12
2019-06-27T13:47:04.033Z,13
2019-06-27T13:48:03.266Z,13
2019-06-27T13:49:03.664Z,12
2019-06-27T13:50:04.196Z,12
2019-06-27T13:51:03.661Z,12
2019-06-27T13:52:03.955Z,12
2019-06-27T13:53:03.303Z,13
2019-06-27T13:54:03.701Z,12
2019-06-27T13:55:04.174Z,12
2019-06-27T13:56:03.588Z,12
2019-06-27T13:57:03.875Z,12
2019-06-27T13:58:04.169Z,12
2019-06-27T13:59:03.477Z,12
2019-06-27T14:00:04.058Z,12
2019-06-27T14:01:03.518Z,12
2019-06-27T14:02:03.361Z,12
2019-06-27T14:03:03.661Z,12
2019-06-27T14:04:03.968Z,12
2019-06-27T14:05:03.398Z,12
2019-06-27T14:06:03.853Z,12
2019-06-27T14:07:04.166Z,12
2019-06-27T14:08:03.562Z,12
2019-06-27T14:09:04.305Z,12
2019-06-27T14:10:03.797Z,12
2019-06-27T14:11:03.620Z,12
2019-06-27T14:12:03.904Z,12
2019-06-27T14:13:04.203Z,12
2019-06-27T14:14:03.531Z,12
2019-06-27T14:15:03.933Z,12